25 september 2022

Tijd Code Weer Temp. Zicht Plafond Wind METAR/SPECI
09:55
V
13 °C 10 km+ - 340° 340° 4 kt METAR EHVK 250755Z AUTO 34004KT 280V010 9999 NCD 13/10 Q1015 BLU
09:25
V
11 °C 10 km+ - 330° 330° 4 kt METAR EHVK 250725Z AUTO 33004KT 290V360 9999 NCD 11/10 Q1015 BLU
08:55
V
10 °C 10 km+ - 330° 330° 3 kt METAR EHVK 250655Z AUTO 33003KT 290V080 9999 NCD 10/09 Q1015 BLU
08:25
V
9 °C 10 km+ - Var Var 2 kt METAR EHVK 250625Z AUTO VRB02KT 9999 NCD 09/09 Q1015 BLU
07:55
V
8 °C 10 km+ - Var Var 2 kt METAR EHVK 250555Z AUTO VRB02KT 9999 NCD 08/08 Q1015 BLU
07:25
V
8 °C 10 km+ - 310° 310° 3 kt METAR EHVK 250525Z AUTO 31003KT 230V350 9999 NCD 08/08 Q1015 BLU
06:55
V
9 °C 10 km+ - Var Var 2 kt METAR EHVK 250455Z AUTO VRB02KT 9999 NCD 09/08 Q1015 BLU
06:25
V
9 °C 10 km+ - 310° 310° 3 kt METAR EHVK 250425Z AUTO 31003KT 9999 NCD 09/08 Q1015 BLU
05:55
V
9 °C 10 km+ - 330° 330° 3 kt METAR EHVK 250355Z AUTO 33003KT 9999 NCD 09/08 Q1015 BLU
05:25
V
9 °C 10 km+ - 340° 340° 4 kt METAR EHVK 250325Z AUTO 34004KT 9999 FEW110 09/09 Q1015 BLU
04:55
V
10 °C 10 km+ 10.000 ft 340° 340° 4 kt METAR EHVK 250255Z AUTO 34004KT 9999 BKN100 10/09 Q1015 BLU
04:25
V
10 °C 10 km+ 10.000 ft 340° 340° 4 kt METAR EHVK 250225Z AUTO 34004KT 9999 OVC100 10/09 Q1015 BLU
03:55
V
10 °C 10 km+ 10.000 ft 340° 340° 4 kt METAR EHVK 250155Z AUTO 34004KT 9999 SCT065 OVC100 10/09 Q1015 BLU
03:25
V
11 °C 10 km+ 10.000 ft 350° 350° 4 kt METAR EHVK 250125Z AUTO 35004KT 9999 OVC100 11/09 Q1015 BLU
02:55
V
11 °C 10 km+ 6.100 ft 360° 360° 3 kt METAR EHVK 250055Z AUTO 36003KT 9999 BKN061 OVC100 11/10 Q1015 BLU
02:25
V
11 °C 10 km+ 6.000 ft 360° 360° 4 kt METAR EHVK 250025Z AUTO 36004KT 9999 BKN060 BKN071 OVC100 11/10 Q1015 BLU
01:55
V
12 °C 10 km+ 5.800 ft 360° 360° 5 kt METAR EHVK 242355Z AUTO 36005KT 9999 OVC058 12/10 Q1015 BLU
01:25
V
12 °C 10 km+ 6.100 ft 360° 360° 5 kt METAR EHVK 242325Z AUTO 36005KT 9999 SCT054 BKN061 OVC091 12/10 Q1015 BLU
00:55
V
12 °C 10 km+ 7.400 ft 350° 350° 6 kt METAR EHVK 242255Z AUTO 35006KT 320V020 9999 FEW049 BKN074 OVC082 12/10 Q1015 BLU
00:25
V
12 °C 10 km+ 4.400 ft 350° 350° 4 kt METAR EHVK 242225Z AUTO 35004KT 9999 OVC044 12/11 Q1015 BLU

24 september 2022

Tijd Code Weer Temp. Zicht Plafond Wind METAR/SPECI
23:55
V
12 °C 10 km+ 7.300 ft 350° 350° 5 kt METAR EHVK 242155Z AUTO 35005KT 310V020 9999 SCT063 OVC073 12/11 Q1015 BLU
23:25
V
12 °C 10 km+ 4.900 ft 350° 350° 4 kt METAR EHVK 242125Z AUTO 35004KT 300V020 9999 BKN049 BKN054 OVC073 12/11 Q1015 BLU
22:55
V
12 °C 10 km+ 3.300 ft 350° 350° 3 kt METAR EHVK 242055Z AUTO 35003KT 9999 -DZ BKN033 OVC038 12/11 Q1015 BLU
22:25
V
13 °C 10 km+ 3.100 ft 350° 350° 3 kt METAR EHVK 242025Z AUTO 35003KT 310V010 9999 -DZ OVC031 13/11 Q1015 BLU
22:01
M
13 °C 10 km+ 2.500 ft 020° 020° 5 kt METAR EHVK 242001Z AUTO 02005KT 9999 -DZ OVC025 13/11 Q1014 BLU
21:56
M
13 °C 10 km+ 2.400 ft 020° 020° 5 kt METAR EHVK 241956Z AUTO 02005KT 340V050 9999 -DZ BKN024 BKN027 OVC031 13/11 Q1014 WHT
21:55
V
13 °C 10 km+ 3.100 ft 010° 010° 4 kt METAR EHVK 241955Z AUTO 01004KT 340V050 9999 -RA FEW015CB SCT024 OVC031 13/11 Q1014 RERA REDZ WHT
21:25
V
13 °C 10 km+ 6.700 ft 010° 010° 5 kt METAR EHVK 241925Z AUTO 01005KT 330V040 9999 DZ FEW027 SCT041 BKN067 13/12 Q1014 BLU
21:16
V
13 °C 10 km+ 6.500 ft 010° 010° 5 kt METAR EHVK 241916Z AUTO 01005KT 330V050 9999 -RA FEW027 SCT051 BKN065 13/12 Q1014 BLU
20:55
V
13 °C 10 km+ 3.500 ft 360° 360° 5 kt METAR EHVK 241855Z AUTO 36005KT 330V030 9999 FEW015CB OVC035 13/12 Q1014 BLU
20:39
V
13 °C 10 km+ 3.400 ft 360° 360° 5 kt METAR EHVK 241839Z AUTO 36005KT 9999 -RA FEW015CB SCT030 OVC034 13/12 Q1014 BLU
20:25
M
13 °C 10 km+ 2.900 ft 350° 350° 5 kt METAR EHVK 241825Z AUTO 35005KT 330V030 9999 -RADZ OVC029 13/12 Q1014 BLU
20:13
M
13 °C 10 km+ 2.500 ft 350° 350° 5 kt METAR EHVK 241813Z AUTO 35005KT 310V010 9999 -RA FEW012 BKN025 OVC029 13/12 Q1014 BLU
19:55
M
13 °C 10 km+ 2.100 ft 340° 340° 3 kt METAR EHVK 241755Z AUTO 34003KT 9999 -DZ BKN021 OVC025 13/12 Q1013 WHT
19:39
M
13 °C 10 km+ 1.600 ft 350° 350° 3 kt METAR EHVK 241739Z AUTO 35003KT 260V350 9999 -RADZ BKN016 OVC019 13/12 Q1013 WHT
19:29
M
13 °C 10 km+ 2.000 ft 360° 360° 3 kt METAR EHVK 241729Z AUTO 36003KT 310V020 9999 -DZ SCT016 BKN020 OVC045 13/12 Q1013 WHT
19:25
V
13 °C 10 km+ 3.900 ft 350° 350° 3 kt METAR EHVK 241725Z AUTO 35003KT 320V050 9999 DZ FEW016 SCT022 BKN039 13/12 Q1013 WHT
19:09
M
13 °C 7 km 3.000 ft 350° 350° 3 kt METAR EHVK 241709Z AUTO 35003KT 340V050 7000 DZ FEW016 SCT020 BKN030 13/12 Q1013 WHT
18:59
M
13 °C 5 km 2.000 ft 350° 350° 4 kt METAR EHVK 241659Z AUTO 35004KT 5000 +DZ FEW014 SCT016 BKN020 13/12 Q1013 WHT
18:55
I
13 °C 4,5 km 2.200 ft 340° 340° 4 kt METAR EHVK 241655Z AUTO 34004KT 4500 +DZ FEW008 SCT017 BKN022 13/12 Q1013 GRN
18:44
M
13 °C 10 km+ 2.800 ft 330° 330° 4 kt METAR EHVK 241644Z AUTO 33004KT 310V010 9999 -DZ SCT024 OVC028 13/12 Q1013 WHT
18:25
V
13 °C 9 km 3.100 ft 320° 320° 4 kt METAR EHVK 241625Z AUTO 32004KT 280V360 9000 DZ OVC031 13/12 Q1013 BLU
18:12
V
13 °C 8 km 3.400 ft 320° 320° 4 kt METAR EHVK 241612Z AUTO 32004KT 280V360 8000 -RA FEW005 OVC034 13/12 Q1013 BLU
18:05
M
13 °C 7 km 3.400 ft 330° 330° 4 kt METAR EHVK 241605Z AUTO 33004KT 280V360 7000 -RA FEW005 OVC034 13/12 Q1013 WHT
17:59
V
13 °C 10 km+ 3.800 ft 330° 330° 5 kt METAR EHVK 241559Z AUTO 33005KT 280V010 9999 -RA FEW005 SCT007 OVC038 13/12 Q1013 GRN
17:55
V
13 °C 9 km 3.800 ft 330° 330° 5 kt METAR EHVK 241555Z AUTO 33005KT 280V010 9000 -RA SCT005 SCT007 OVC038 13/12 Q1013 RERA REDZ YLO
17:26
V
14 °C 10 km+ 4.300 ft 340° 340° 5 kt METAR EHVK 241526Z AUTO 34005KT 280V360 9999 FEW006 OVC043 14/13 Q1013 BLU
17:25
V
14 °C 10 km+ 4.300 ft 340° 340° 5 kt METAR EHVK 241525Z AUTO 34005KT 280V360 9999 -DZ FEW006 SCT008 OVC043 14/13 Q1013 GRN
17:12
I
14 °C 9 km 600 ft 350° 350° 5 kt METAR EHVK 241512Z AUTO 35005KT 310V010 9000 -DZ SCT005 BKN006 OVC044 14/13 Q1013 YLO
17:08
V
14 °C 8 km 4.500 ft 340° 340° 5 kt METAR EHVK 241508Z AUTO 34005KT 310V010 8000 -DZ FEW005 SCT006 OVC045 14/13 Q1013 YLO
16:55
V
14 °C 9 km 5.700 ft 330° 330° 5 kt METAR EHVK 241455Z AUTO 33005KT 310V010 9000 BR FEW046 SCT052 BKN057 14/13 Q1013 BLU
16:37
V
14 °C 10 km+ 4.600 ft 330° 330° 4 kt METAR EHVK 241437Z AUTO 33004KT 290V010 9999 FEW009 SCT015 BKN046 14/13 Q1013 WHT
16:30
M
15 °C 10 km+ 2.000 ft 320° 320° 3 kt METAR EHVK 241430Z AUTO 32003KT 290V010 9999 FEW009 SCT014 BKN020 15/13 Q1013 GRN
16:26
V
15 °C 10 km+ 4.600 ft 320° 320° 3 kt METAR EHVK 241426Z AUTO 32003KT 280V350 9999 FEW011 SCT014 OVC046 15/13 Q1013 GRN
16:25
V
15 °C 10 km+ 4.500 ft Var Var 2 kt METAR EHVK 241425Z AUTO VRB02KT 9999 FEW013 OVC045 15/12 Q1013 BLU
15:55
V
15 °C 10 km+ 4.300 ft 270° 270° 3 kt METAR EHVK 241355Z AUTO 27003KT 240V360 9999 OVC043 15/12 Q1013 BLU
15:25
V
15 °C 10 km+ 4.300 ft 260° 260° 3 kt METAR EHVK 241325Z AUTO 26003KT 240V310 9999 FEW038 OVC043 15/12 Q1013 BLU
14:55
V
15 °C 10 km+ 4.300 ft 240° 240° 3 kt METAR EHVK 241255Z AUTO 24003KT 200V290 9999 OVC043 15/12 Q1013 BLU
14:25
V
15 °C 10 km+ 4.400 ft 250° 250° 3 kt METAR EHVK 241225Z AUTO 25003KT 210V270 9999 FEW040 BKN044 OVC050 15/12 Q1013 BLU
14:05
V
14 °C 10 km+ 5.200 ft 230° 230° 5 kt METAR EHVK 241205Z AUTO 23005KT 200V280 9999 FEW010 SCT048 OVC052 14/12 Q1013 BLU
13:55
M
14 °C 10 km+ 1.400 ft 210° 210° 4 kt METAR EHVK 241155Z AUTO 21004KT 160V260 9999 FEW007 SCT010 BKN014 14/13 Q1013 GRN
13:29
M
14 °C 9 km 1.000 ft 210° 210° 3 kt METAR EHVK 241129Z AUTO 21003KT 200V260 9000 BR FEW007 BKN010 BKN015 14/13 Q1013 GRN
13:25
V
14 °C 10 km+ 5.000 ft 210° 210° 4 kt METAR EHVK 241125Z AUTO 21004KT 180V250 9999 FEW007 SCT010 OVC050 14/12 Q1013 GRN
13:17
V
14 °C 10 km+ 5.000 ft 200° 200° 3 kt METAR EHVK 241117Z AUTO 20003KT 160V230 9999 FEW009 SCT043 OVC050 14/12 Q1013 BLU
12:55
M
14 °C 10 km+ 1.000 ft 200° 200° 4 kt METAR EHVK 241055Z AUTO 20004KT 160V270 9999 -DZ FEW007 SCT008 BKN010 14/12 Q1012 GRN
12:25
I
14 °C 10 km+ 800 ft 200° 200° 4 kt METAR EHVK 241025Z AUTO 20004KT 150V240 9999 FEW006 BKN008 BKN010 14/13 Q1012 GRN
11:55
M
13 °C 9 km 1.000 ft 190° 190° 5 kt METAR EHVK 240955Z AUTO 19005KT 150V230 9000 BR FEW006 SCT008 BKN010 13/13 Q1012 GRN
11:39
V
13 °C 8 km 4.000 ft 200° 200° 5 kt METAR EHVK 240939Z AUTO 20005KT 150V230 8000 -DZ FEW006 SCT008 OVC040 13/12 Q1012 GRN
11:31
V
13 °C 8 km 4.000 ft 200° 200° 5 kt METAR EHVK 240931Z AUTO 20005KT 170V230 8000 -DZRA FEW004 SCT007 OVC040 13/12 Q1012 GRN
11:25
I
13 °C 7 km 800 ft 200° 200° 5 kt METAR EHVK 240925Z AUTO 20005KT 160V230 7000 -DZ FEW004 SCT006 BKN008 13/12 Q1012 REDZ YLO
11:16
M
13 °C 6 km 3.800 ft 190° 190° 5 kt METAR EHVK 240916Z AUTO 19005KT 150V240 6000 -DZ FEW004 SCT007 OVC038 13/12 Q1012 GRN
11:11
M
13 °C 6 km 3.800 ft 200° 200° 5 kt METAR EHVK 240911Z AUTO 20005KT 160V230 6000 DZ FEW005 OVC038 13/12 Q1012 WHT
10:55
I
13 °C 4,3 km 500 ft 200° 200° 6 kt METAR EHVK 240855Z AUTO 20006KT 140V230 4300 +DZ FEW004 BKN005 BKN007 13/12 Q1012 YLO
10:42
I
13 °C 4,7 km 800 ft 180° 180° 6 kt METAR EHVK 240842Z AUTO 18006KT 160V230 4700 +DZ SCT007 BKN008 OVC031 13/12 Q1012 GRN
10:30
M
13 °C 5 km 3.300 ft 200° 200° 6 kt METAR EHVK 240830Z AUTO 20006KT 160V240 5000 +DZ FEW005 OVC033 13/12 Q1012 WHT
10:25
I
13 °C 4,2 km 3.000 ft 200° 200° 6 kt METAR EHVK 240825Z AUTO 20006KT 4200 +DZ FEW005 SCT008 OVC030 13/12 Q1012 GRN
09:55
I
13 °C 4,4 km 2.900 ft 180° 180° 6 kt METAR EHVK 240755Z AUTO 18006KT 150V230 4400 -RA OVC029 13/12 Q1012 RERA REDZ GRN
09:39
I
13 °C 4,7 km 3.000 ft 180° 180° 7 kt METAR EHVK 240739Z AUTO 18007KT 150V220 4700 +DZ FEW025 OVC030 13/12 Q1012 GRN
09:35
M
13 °C 5 km 3.000 ft 180° 180° 7 kt METAR EHVK 240735Z AUTO 18007KT 160V230 5000 +DZ FEW025 OVC030 13/12 Q1012 WHT
09:25
M
13 °C 5 km 2.900 ft 190° 190° 7 kt METAR EHVK 240725Z AUTO 19007KT 150V230 5000 +DZ FEW023 OVC029 13/12 Q1012 WHT
08:55
M
13 °C 6 km 3.000 ft 190° 190° 9 kt METAR EHVK 240655Z AUTO 19009KT 140V220 6000 DZ FEW027 OVC030 13/12 Q1011 WHT
08:25
M
13 °C 6 km 2.900 ft 190° 190° 9 kt METAR EHVK 240625Z AUTO 19009KT 160V230 6000 +DZ OVC029 13/12 Q1011 WHT
08:08
M
13 °C 5 km 2.900 ft 200° 200° 9 kt METAR EHVK 240608Z AUTO 20009KT 150V230 5000 +DZ SCT026 OVC029 13/12 Q1011 WHT
08:03
I
13 °C 3,7 km 2.700 ft 200° 200° 8 kt METAR EHVK 240603Z AUTO 20008KT 170V240 3700 +DZ FEW007 OVC027 13/12 Q1011 GRN
07:55
I
13 °C 3,4 km 900 ft 200° 200° 8 kt METAR EHVK 240555Z AUTO 20008KT 150V230 3400 +DZ FEW006 SCT008 BKN009 13/12 Q1011 YLO
07:44
M
13 °C 7 km 4.900 ft 190° 190° 7 kt METAR EHVK 240544Z AUTO 19007KT 150V230 7000 DZ FEW007 SCT015 OVC049 13/12 Q1011 WHT
07:36
V
13 °C 8 km 5.200 ft 180° 180° 8 kt METAR EHVK 240536Z AUTO 18008KT 150V210 8000 DZ FEW009 SCT016 OVC052 13/12 Q1011 WHT
07:33
V
13 °C 8 km 5.300 ft 180° 180° 8 kt METAR EHVK 240533Z AUTO 18008KT 110V210 8000 DZRA FEW011 OVC053 13/12 Q1011 BLU
07:29
V
13 °C 9 km 5.400 ft 190° 190° 7 kt METAR EHVK 240529Z AUTO 19007KT 110V230 9000 -RA FEW011 SCT022 OVC054 13/12 Q1011 WHT
07:25
M
13 °C 9 km 1.900 ft 190° 190° 6 kt METAR EHVK 240525Z AUTO 19006KT 160V230 9000 BR SCT010 SCT014 BKN019 13/12 Q1011 GRN
07:16
M
13 °C 9 km 1.000 ft 190° 190° 6 kt METAR EHVK 240516Z AUTO 19006KT 160V230 9000 BR BKN010 OVC013 13/12 Q1011 GRN
07:03
M
13 °C 9 km 1.400 ft 190° 190° 7 kt METAR EHVK 240503Z AUTO 19007KT 160V220 9000 BR SCT012 BKN014 OVC017 13/12 Q1011 GRN
06:56
M
13 °C 9 km 1.600 ft 190° 190° 7 kt METAR EHVK 240456Z AUTO 19007KT 160V220 9000 -RA SCT013 OVC016 13/12 Q1011 GRN
06:55
M
13 °C 9 km 1.600 ft 190° 190° 7 kt METAR EHVK 240455Z AUTO 19007KT 160V220 9000 BR FEW014 OVC016 13/12 Q1011 WHT
06:38
V
13 °C 8 km 6.000 ft 190° 190° 7 kt METAR EHVK 240438Z AUTO 19007KT 160V220 8000 -DZ FEW017 OVC060 13/12 Q1011 BLU
06:36
M
13 °C 7 km 5.600 ft 190° 190° 7 kt METAR EHVK 240436Z AUTO 19007KT 160V220 7000 -DZ BKN056 OVC061 13/12 Q1011 WHT
06:32
V
13 °C 8 km 5.700 ft 190° 190° 8 kt METAR EHVK 240432Z AUTO 19008KT 150V220 8000 -RADZ FEW017 BKN057 OVC063 13/12 Q1011 BLU
06:25
M
13 °C 7 km 6.100 ft 190° 190° 8 kt METAR EHVK 240425Z AUTO 19008KT 150V230 7000 -DZ FEW015 BKN061 OVC073 13/12 Q1011 REDZ WHT
06:07
M
13 °C 7 km 4.800 ft 190° 190° 8 kt METAR EHVK 240407Z AUTO 19008KT 160V220 7000 DZ FEW017 BKN048 OVC059 13/12 Q1011 WHT
05:55
V
13 °C 8 km 4.600 ft 190° 190° 7 kt METAR EHVK 240355Z AUTO 19007KT 160V230 8000 -DZ FEW018 OVC046 13/12 Q1011 BLU
05:41
V
13 °C 9 km 4.300 ft 200° 200° 6 kt METAR EHVK 240341Z AUTO 20006KT 160V230 9000 -RADZ FEW017 OVC043 13/12 Q1011 BLU
05:32
V
13 °C 10 km+ 4.300 ft 200° 200° 6 kt METAR EHVK 240332Z AUTO 20006KT 150V230 9999 -RA FEW017 SCT020 BKN043 13/12 Q1011 WHT
05:25
V
13 °C 10 km+ 5.300 ft 190° 190° 6 kt METAR EHVK 240325Z AUTO 19006KT 160V230 9999 -DZ FEW019 SCT045 OVC053 13/12 Q1011 BLU
05:17
V
13 °C 10 km+ 4.100 ft 190° 190° 6 kt METAR EHVK 240317Z AUTO 19006KT 160V220 9999 -DZ FEW018 SCT036 BKN041 13/12 Q1011 BLU
04:55
M
13 °C 10 km+ 1.800 ft 190° 190° 6 kt METAR EHVK 240255Z AUTO 19006KT 160V230 9999 DZ BKN018 BKN023 BKN026 13/11 Q1012 WHT
04:25
M
13 °C 10 km+ 2.000 ft 200° 200° 4 kt METAR EHVK 240225Z AUTO 20004KT 160V230 9999 OVC020 13/12 Q1012 WHT
04:07
M
13 °C 10 km+ 1.900 ft 190° 190° 4 kt METAR EHVK 240207Z AUTO 19004KT 160V220 9999 BKN019 OVC038 13/12 Q1012 WHT
03:55
V
13 °C 10 km+ 3.200 ft 190° 190° 5 kt METAR EHVK 240155Z AUTO 19005KT 160V230 9999 OVC032 13/12 Q1012 BLU
03:25
M
13 °C 10 km+ 2.500 ft 210° 210° 5 kt METAR EHVK 240125Z AUTO 21005KT 9999 BKN025 OVC028 13/12 Q1012 BLU
03:07
M
13 °C 10 km+ 2.200 ft 210° 210° 7 kt METAR EHVK 240107Z AUTO 21007KT 180V240 9999 BKN022 BKN065 BKN071 13/12 Q1012 WHT
02:57
V
13 °C 10 km+ 5.200 ft 210° 210° 6 kt METAR EHVK 240057Z AUTO 21006KT 180V250 9999 SCT021 BKN052 BKN057 13/12 Q1012 WHT
02:55
V
13 °C 10 km+ 5.000 ft 210° 210° 6 kt METAR EHVK 240055Z AUTO 21006KT 160V250 9999 BKN050 BKN057 OVC093 13/12 Q1013 BLU
02:25
V
13 °C 9 km 8.700 ft 210° 210° 6 kt METAR EHVK 240025Z AUTO 21006KT 9000 BR SCT076 BKN087 OVC094 13/12 Q1013 BLU
01:55
V
13 °C 8 km 4.600 ft 220° 220° 5 kt METAR EHVK 232355Z AUTO 22005KT 180V250 8000 -DZ FEW039 OVC046 13/12 Q1013 REDZ BLU
01:25
V
13 °C 10 km+ 6.100 ft 230° 230° 5 kt METAR EHVK 232325Z AUTO 23005KT 9999 -RA SCT025 BKN061 BKN071 13/12 Q1013 RERA REDZ BLU
01:16
V
13 °C 10 km+ 8.200 ft 230° 230° 6 kt METAR EHVK 232316Z AUTO 23006KT 9999 -SHRA FEW025 BKN082 BKN087 13/12 Q1013 BLU
01:03
V
13 °C 9 km 7.600 ft 230° 230° 7 kt METAR EHVK 232303Z AUTO 23007KT 9000 -RADZ BKN076 OVC081 13/12 Q1013 BLU
00:55
M
13 °C 7 km 7.400 ft 220° 220° 7 kt METAR EHVK 232255Z AUTO 22007KT 7000 +DZ BKN074 OVC079 13/12 Q1013 WHT
00:25
V
14 °C 10 km+ 7.000 ft 220° 220° 6 kt METAR EHVK 232225Z AUTO 22006KT 9999 DZ BKN070 OVC076 14/12 Q1013 BLU

23 september 2022

Tijd Code Weer Temp. Zicht Plafond Wind METAR/SPECI
23:55
V
14 °C 10 km+ 7.700 ft 210° 210° 6 kt METAR EHVK 232155Z AUTO 21006KT 180V240 9999 SCT045 BKN077 OVC083 14/12 Q1013 BLU
23:40
V
14 °C 8 km 4.100 ft 210° 210° 5 kt METAR EHVK 232140Z AUTO 21005KT 160V240 8000 BR OVC041 14/13 Q1013 BLU
23:25
M
14 °C 7 km 4.100 ft 200° 200° 4 kt METAR EHVK 232125Z AUTO 20004KT 170V230 7000 -DZ BKN041 OVC047 14/13 Q1013 REDZ WHT
23:17
M
14 °C 7 km 4.200 ft 190° 190° 3 kt METAR EHVK 232117Z AUTO 19003KT 170V230 7000 BR OVC042 14/13 Q1013 WHT
22:55
V
13 °C 9 km 5.200 ft 230° 230° 3 kt METAR EHVK 232055Z AUTO 23003KT 9000 DZ SCT041 BKN052 OVC060 13/12 Q1013 BLU
22:25
V
14 °C 10 km+ 7.700 ft 240° 240° 4 kt METAR EHVK 232025Z AUTO 24004KT 9999 -RADZ SCT072 OVC077 14/12 Q1014 BLU
21:55
V
14 °C 10 km+ 7.700 ft 250° 250° 5 kt METAR EHVK 231955Z AUTO 25005KT 9999 -RA SCT069 OVC077 14/12 Q1014 RERA REDZ BLU
21:25
V
14 °C 10 km+ 5.400 ft 250° 250° 2 kt METAR EHVK 231925Z AUTO 25002KT 9999 OVC054 14/12 Q1014 BLU
20:55
V
14 °C 10 km+ 8.800 ft 280° 280° 1 kt METAR EHVK 231855Z AUTO 28001KT 9999 -DZ OVC088 14/12 Q1014 BLU
20:25
V
14 °C 10 km+ 4.400 ft 280° 280° 1 kt METAR EHVK 231825Z AUTO 28001KT 9999 FEW029 OVC044 14/12 Q1014 BLU
19:55
V
15 °C 10 km+ 7.900 ft Var Var 1 kt METAR EHVK 231755Z AUTO VRB01KT 9999 SCT028 BKN079 OVC090 15/12 Q1014 REDZ BLU
19:26
V
15 °C 10 km+ 6.800 ft 100° 100° 1 kt METAR EHVK 231726Z AUTO 10001KT 9999 DZ FEW049 BKN068 OVC074 15/12 Q1014 BLU
19:25
V
15 °C 10 km+ 7.400 ft 110° 110° 1 kt METAR EHVK 231725Z AUTO 11001KT 9999 DZ FEW015CB SCT069 OVC074 15/11 Q1014 BLU
19:19
V
15 °C 10 km+ 6.900 ft 210° 210° 1 kt METAR EHVK 231719Z AUTO 21001KT 9999 DZRA FEW016CB SCT055 BKN069 15/11 Q1014 BLU
18:55
V
16 °C 10 km+ 7.600 ft 240° 240° 2 kt METAR EHVK 231655Z AUTO 24002KT 9999 -RADZ FEW034 SCT057 BKN076 16/11 Q1014 BLU
18:25
V
16 °C 10 km+ 7.700 ft 210° 210° 6 kt METAR EHVK 231625Z AUTO 21006KT 180V240 9999 FEW032 SCT069 BKN077 16/11 Q1014 REDZ BLU
17:55
V
17 °C 10 km+ 6.600 ft 240° 240° 4 kt METAR EHVK 231555Z AUTO 24004KT 200V260 9999 FEW052 BKN066 BKN074 17/11 Q1014 BLU
17:25
V
17 °C 10 km+ 8.200 ft 230° 230° 6 kt METAR EHVK 231525Z AUTO 23006KT 9999 FEW076 OVC082 17/10 Q1014 BLU
16:55
V
17 °C 10 km+ 9.600 ft 240° 240° 6 kt METAR EHVK 231455Z AUTO 24006KT 190V260 9999 FEW089 BKN096 OVC100 17/09 Q1014 BLU
16:25
V
18 °C 10 km+ 9.300 ft 220° 220° 9 kt METAR EHVK 231425Z AUTO 22009KT 190V250 9999 SCT087 BKN093 OVC100 18/08 Q1014 BLU
16:09
V
18 °C 10 km+ 8.800 ft 210° 210° 8 kt METAR EHVK 231409Z AUTO 21008KT 180V240 9999 OVC088 18/09 Q1014 BLU
15:55
V
18 °C 10 km+ 8.500 ft 210° 210° 8 kt METAR EHVK 231355Z AUTO 21008KT 190V250 9999 FEW077 BKN085 OVC091 18/09 Q1015 BLU NOSIG
15:25
V
18 °C 10 km+ 10.000 ft 200° 200° 7 kt METAR EHVK 231325Z AUTO 20007KT 180V240 9999 OVC100 18/08 Q1015 BLU NOSIG
14:55
V
18 °C 10 km+ 10.000 ft 200° 200° 7 kt METAR EHVK 231255Z AUTO 20007KT 160V240 9999 OVC100 18/08 Q1015 BLU NOSIG
14:25
V
18 °C 10 km+ 10.000 ft 200° 200° 5 kt METAR EHVK 231225Z AUTO 20005KT 140V250 9999 OVC100 18/08 Q1015 BLU NOSIG
13:55
V
17 °C 10 km+ 10.000 ft 190° 190° 6 kt METAR EHVK 231155Z AUTO 19006KT 160V240 9999 SCT092 OVC100 17/09 Q1015 BLU NOSIG
13:25
V
17 °C 10 km+ 11.000 ft 190° 190° 4 kt METAR EHVK 231125Z AUTO 19004KT 160V250 9999 FEW093 SCT098 OVC110 17/09 Q1015 BLU NOSIG
12:55
V
17 °C 10 km+ 13.000 ft 220° 220° 4 kt METAR EHVK 231055Z AUTO 22004KT 150V250 9999 OVC130 17/09 Q1016 BLU NOSIG
12:25
V
16 °C 10 km+ 15.000 ft Var Var 3 kt METAR EHVK 231025Z AUTO VRB03KT 9999 OVC150 16/09 Q1016 BLU NOSIG
11:55
V
15 °C 10 km+ 17.000 ft 180° 180° 4 kt METAR EHVK 230955Z AUTO 18004KT 120V200 9999 OVC170 15/09 Q1016 BLU NOSIG
11:25
V
14 °C 10 km+ 9.800 ft 180° 180° 3 kt METAR EHVK 230925Z AUTO 18003KT 110V220 9999 OVC098 14/08 Q1016 BLU NOSIG
10:55
V
13 °C 10 km+ 15.000 ft 180° 180° 3 kt METAR EHVK 230855Z AUTO 18003KT 140V200 9999 OVC150 13/08 Q1016 BLU NOSIG
10:25
V
12 °C 10 km+ 15.000 ft 220° 220° 3 kt METAR EHVK 230825Z AUTO 22003KT 160V240 9999 OVC150 12/08 Q1016 BLU NOSIG
09:55
V
11 °C 10 km+ 14.000 ft 170° 170° 3 kt METAR EHVK 230755Z AUTO 17003KT 120V190 9999 OVC140 11/08 Q1016 BLU NOSIG
09:25
V
10 °C 10 km+ 14.000 ft 170° 170° 3 kt METAR EHVK 230725Z AUTO 17003KT 110V180 9999 OVC140 10/08 Q1016 BLU NOSIG
Oudere gegevens

Met cookies volgen wij en derde partijen jouw internetgedrag binnen onze site. Als je verdergaat gaan we ervan uit dat je dit goedvindt. Meer info